Time;durP1;ratioP1;P1;durP2;ratioP2;P2;SDS_P1;SDS_P2;PMS_P1;PMS_P2;Temp;Humidity;BMP_temperature;BMP_pressure;BME280_temperature;BME280_humidity;BME280_pressure;Samples;Min_cycle;Max_cycle;Signal;HPM_P1;HPM_P2
2021/12/19 00:01:07;;;;;;;32.00;21.40;;;7.60;99.90;;;;;;5052044;28;20204;-85
2021/12/19 00:08:50;;;;;;;29.37;20.80;;;7.60;99.90;;;;;;5064937;28;20442;-84
2021/12/19 00:11:18;;;;;;;34.37;22.20;;;7.60;99.90;;;;;;5041484;28;20432;-84
2021/12/19 00:13:44;;;;;;;28.33;20.53;;;7.70;99.90;;;;;;5042333;28;20447;-85
2021/12/19 00:16:10;;;;;;;30.57;20.50;;;7.80;99.90;;;;;;5076061;28;20512;-87
2021/12/19 00:18:36;;;;;;;34.13;22.43;;;7.70;99.90;;;;;;5037966;28;20462;-87
2021/12/19 00:21:02;;;;;;;30.67;20.50;;;7.60;99.90;;;;;;5025227;28;20427;-87
2021/12/19 00:23:27;;;;;;;30.67;20.07;;;7.60;99.90;;;;;;5025689;28;20597;-87
2021/12/19 00:25:53;;;;;;;28.47;19.33;;;7.90;99.90;;;;;;5025143;28;20499;-87
2021/12/19 00:28:19;;;;;;;27.10;19.43;;;7.70;99.90;;;;;;5041777;28;20204;-84
2021/12/19 00:30:45;;;;;;;27.83;18.47;;;7.60;99.90;;;;;;5048029;28;20485;-86
2021/12/19 00:33:11;;;;;;;28.97;19.20;;;7.70;99.90;;;;;;5075017;28;20565;-85
2021/12/19 00:35:37;;;;;;;30.00;19.20;;;7.70;99.90;;;;;;5054196;28;20216;-86
2021/12/19 00:38:03;;;;;;;28.20;20.00;;;7.90;99.90;;;;;;5075484;28;20207;-87
2021/12/19 00:40:29;;;;;;;29.93;19.10;;;7.80;99.90;;;;;;5078163;28;20486;-86
2021/12/19 00:43:07;;;;;;;26.20;18.63;;;7.90;99.90;;;;;;5058395;28;20525;-86
2021/12/19 00:45:35;;;;;;;27.13;19.50;;;7.70;99.90;;;;;;5059400;28;20185;-87
2021/12/19 00:48:04;;;;;;;27.10;18.63;;;7.70;99.90;;;;;;5041259;28;20851;-87
2021/12/19 00:50:30;;;;;;;31.90;20.30;;;7.70;99.90;;;;;;5035858;28;20821;-86
2021/12/19 00:52:56;;;;;;;29.70;19.70;;;7.60;99.90;;;;;;5068067;28;20416;-85
2021/12/19 00:55:25;;;;;;;26.63;19.27;;;7.70;99.90;;;;;;5073436;28;20546;-84
2021/12/19 00:57:51;;;;;;;29.17;18.97;;;7.70;99.90;;;;;;5039309;28;20475;-82
2021/12/19 01:00:19;;;;;;;27.47;19.23;;;7.70;99.90;;;;;;5055591;28;20430;-83
2021/12/19 01:02:46;;;;;;;22.73;17.10;;;7.70;99.90;;;;;;5073095;28;20829;-85
2021/12/19 01:05:13;;;;;;;22.87;17.10;;;7.70;99.90;;;;;;5073613;28;20923;-85
2021/12/19 01:07:39;;;;;;;26.30;16.57;;;7.60;99.90;;;;;;5075000;28;20576;-86
2021/12/19 01:10:07;;;;;;;24.63;17.40;;;7.70;99.90;;;;;;5077467;28;20446;-86
2021/12/19 01:12:36;;;;;;;24.50;16.83;;;7.70;99.90;;;;;;5060675;28;20431;-87
2021/12/19 01:15:04;;;;;;;25.57;16.30;;;7.60;99.90;;;;;;5057045;28;20524;-86
2021/12/19 01:17:30;;;;;;;20.73;14.90;;;7.70;99.90;;;;;;5023257;28;20477;-87
2021/12/19 01:19:55;;;;;;;20.13;14.40;;;7.60;99.90;;;;;;5061126;28;20434;-84
2021/12/19 01:22:21;;;;;;;22.70;16.60;;;7.60;99.90;;;;;;5046093;28;20419;-85
2021/12/19 01:24:47;;;;;;;22.30;14.93;;;7.60;99.90;;;;;;5072078;28;20185;-85
2021/12/19 01:27:13;;;;;;;24.50;15.90;;;7.60;99.90;;;;;;5059801;28;20264;-84
2021/12/19 01:29:38;;;;;;;22.70;16.50;;;7.70;99.90;;;;;;5056926;28;20189;-85
2021/12/19 01:32:04;;;;;;;24.33;16.60;;;7.60;99.90;;;;;;5039501;28;20236;-86
2021/12/19 01:34:30;;;;;;;24.13;16.33;;;7.70;99.90;;;;;;5039532;28;20569;-85
2021/12/19 01:36:55;;;;;;;22.20;15.87;;;7.60;99.90;;;;;;5056273;28;20459;-84
2021/12/19 01:39:21;;;;;;;21.53;15.20;;;7.90;99.90;;;;;;5056365;28;20284;-85
2021/12/19 01:41:54;;;;;;;25.70;16.27;;;7.60;99.90;;;;;;5043512;28;20272;-84
2021/12/19 01:44:21;;;;;;;25.63;16.80;;;7.70;99.90;;;;;;5052099;28;20221;-85
2021/12/19 01:46:47;;;;;;;21.93;16.50;;;7.60;99.90;;;;;;5041498;28;20443;-84
2021/12/19 01:49:14;;;;;;;27.07;17.87;;;7.60;99.90;;;;;;5055742;28;20423;-85
2021/12/19 01:51:40;;;;;;;25.77;18.10;;;7.60;99.90;;;;;;5023247;28;21035;-84
2021/12/19 01:54:06;;;;;;;30.10;18.33;;;7.60;99.90;;;;;;5065725;28;20515;-84
2021/12/19 01:56:32;;;;;;;26.17;18.00;;;7.50;99.90;;;;;;5072791;28;20494;-86
2021/12/19 01:58:59;;;;;;;27.20;17.80;;;7.70;99.90;;;;;;5056336;28;20211;-82
2021/12/19 02:01:25;;;;;;;28.37;19.53;;;7.70;99.90;;;;;;5073049;28;20796;-84
2021/12/19 02:03:51;;;;;;;26.80;18.97;;;7.70;99.90;;;;;;5061567;28;20427;-85
2021/12/19 02:06:17;;;;;;;30.50;18.80;;;7.80;99.90;;;;;;5056072;28;20484;-84
2021/12/19 02:08:43;;;;;;;27.50;17.87;;;7.70;99.90;;;;;;5051588;28;20440;-82
2021/12/19 02:11:09;;;;;;;26.80;18.27;;;7.60;99.90;;;;;;5053385;28;20440;-85
2021/12/19 02:13:34;;;;;;;23.77;16.80;;;7.70;99.90;;;;;;5036196;28;20443;-85
2021/12/19 02:16:00;;;;;;;26.67;17.47;;;7.60;99.90;;;;;;5053699;28;20266;-86
2021/12/19 02:18:27;;;;;;;27.07;18.40;;;7.60;99.90;;;;;;5067810;28;20956;-83
2021/12/19 02:20:55;;;;;;;25.70;17.20;;;7.70;99.90;;;;;;5055750;28;20458;-86
2021/12/19 02:23:24;;;;;;;32.20;19.23;;;7.70;99.90;;;;;;5074403;28;20461;-85
2021/12/19 02:25:51;;;;;;;26.10;18.27;;;7.80;99.90;;;;;;5060312;28;20427;-85
2021/12/19 02:28:18;;;;;;;24.73;17.30;;;7.50;99.90;;;;;;5076651;28;20451;-83
2021/12/19 02:30:44;;;;;;;25.80;16.47;;;7.70;99.90;;;;;;5042099;28;20977;-84
2021/12/19 02:33:15;;;;;;;27.90;18.03;;;7.80;99.90;;;;;;5049925;28;20436;-85
2021/12/19 02:35:45;;;;;;;28.40;16.90;;;7.90;99.90;;;;;;5075783;28;20457;-85
2021/12/19 02:49:19;;;;;;;30.03;20.00;;;7.80;99.90;;;;;;5076413;28;20430;-84
2021/12/19 02:51:45;;;;;;;28.67;18.47;;;7.60;99.90;;;;;;5044134;28;20419;-83
2021/12/19 02:54:11;;;;;;;24.97;18.37;;;7.80;99.90;;;;;;5067788;28;20420;-83
2021/12/19 02:56:37;;;;;;;28.90;19.63;;;7.80;99.90;;;;;;5040693;28;20922;-84
2021/12/19 02:59:02;;;;;;;24.80;17.77;;;7.40;99.90;;;;;;5043522;28;20197;-85
2021/12/19 03:01:28;;;;;;;28.53;18.43;;;7.80;99.90;;;;;;5031278;28;20181;-85
2021/12/19 03:03:54;;;;;;;27.47;18.10;;;7.70;99.90;;;;;;5051512;28;20216;-85
2021/12/19 03:06:20;;;;;;;32.00;19.50;;;8.00;99.90;;;;;;5042060;28;20189;-85
2021/12/19 03:08:49;;;;;;;30.33;19.43;;;7.70;99.90;;;;;;5063769;28;20220;-84
2021/12/19 03:19:29;;;;;;;30.80;21.03;;;7.70;99.90;;;;;;5075548;28;20427;-84
2021/12/19 03:21:55;;;;;;;30.10;20.23;;;7.70;99.90;;;;;;5075571;28;20407;-84
2021/12/19 03:24:20;;;;;;;25.50;18.07;;;7.60;99.90;;;;;;5042145;28;20431;-83
2021/12/19 03:26:46;;;;;;;26.30;19.63;;;7.60;99.90;;;;;;5075840;28;20430;-85
2021/12/19 03:29:12;;;;;;;26.13;17.40;;;7.80;99.90;;;;;;5075079;28;20205;-84
2021/12/19 03:31:38;;;;;;;17.23;13.77;;;7.70;99.90;;;;;;5068185;28;20281;-85
2021/12/19 03:34:04;;;;;;;19.13;14.63;;;7.70;99.90;;;;;;5074999;28;20444;-85
2021/12/19 03:36:31;;;;;;;17.00;12.43;;;7.60;99.90;;;;;;5016691;28;20548;-85
2021/12/19 03:38:59;;;;;;;14.13;11.27;;;7.80;99.90;;;;;;5058515;28;20201;-84
2021/12/19 03:41:33;;;;;;;15.23;12.50;;;7.60;99.90;;;;;;5036821;28;20427;-86
2021/12/19 03:44:04;;;;;;;12.23;10.07;;;7.50;99.90;;;;;;5046600;28;20454;-85
2021/12/19 03:46:30;;;;;;;11.60;9.17;;;7.50;99.90;;;;;;5074734;28;20423;-84
2021/12/19 03:48:56;;;;;;;12.40;8.90;;;7.60;99.90;;;;;;5079325;28;20448;-84
2021/12/19 03:51:22;;;;;;;12.37;9.13;;;7.70;99.90;;;;;;5033011;28;21008;-85
2021/12/19 03:53:48;;;;;;;10.93;8.90;;;7.50;99.90;;;;;;5037988;28;20197;-84
2021/12/19 03:56:14;;;;;;;14.10;10.07;;;7.60;99.90;;;;;;5054806;28;20464;-85
2021/12/19 03:58:40;;;;;;;13.87;9.57;;;7.60;99.90;;;;;;5024986;28;20518;-84
2021/12/19 04:01:08;;;;;;;11.77;9.47;;;7.60;99.90;;;;;;5075505;28;20185;-85
2021/12/19 04:03:34;;;;;;;14.10;10.23;;;7.50;99.90;;;;;;5074894;28;20493;-85
2021/12/19 04:06:00;;;;;;;15.63;10.57;;;7.70;99.90;;;;;;5057821;28;20419;-85
2021/12/19 04:08:25;;;;;;;12.47;10.20;;;7.50;99.90;;;;;;5057630;28;20307;-84
2021/12/19 04:10:52;;;;;;;16.40;10.33;;;7.60;99.90;;;;;;5041773;28;20520;-85
2021/12/19 04:13:19;;;;;;;14.73;10.57;;;7.60;99.90;;;;;;5058354;28;20645;-85
2021/12/19 04:15:48;;;;;;;14.13;10.10;;;7.50;99.90;;;;;;5054343;28;20536;-85
2021/12/19 04:18:14;;;;;;;15.30;10.80;;;7.50;99.90;;;;;;5048589;28;20556;-86
2021/12/19 04:20:40;;;;;;;13.40;9.97;;;7.40;99.90;;;;;;5071420;28;20440;-85
2021/12/19 04:23:06;;;;;;;12.70;9.30;;;7.60;99.90;;;;;;5025561;28;20431;-87
2021/12/19 04:25:32;;;;;;;12.83;9.27;;;7.60;99.90;;;;;;5054659;28;20423;-85
2021/12/19 04:27:58;;;;;;;13.47;10.53;;;7.50;99.90;;;;;;5034411;28;20436;-83
2021/12/19 04:30:25;;;;;;;14.00;10.07;;;7.60;99.90;;;;;;5021732;28;20531;-84
2021/12/19 04:33:03;;;;;;;14.90;9.97;;;7.70;99.90;;;;;;5056120;28;20428;-85
2021/12/19 04:35:33;;;;;;;14.80;11.00;;;7.60;99.90;;;;;;5073811;28;20423;-84
2021/12/19 04:41:04;;;;;;;13.70;10.40;;;7.80;99.90;;;;;;5074062;28;20422;-84
2021/12/19 05:02:14;;;;;;;9.90;7.53;;;7.70;99.90;;;;;;5071463;28;20416;-85
2021/12/19 05:15:34;;;;;;;10.80;6.37;;;7.60;99.90;;;;;;5054509;28;20424;-83
2021/12/19 05:18:05;;;;;;;7.83;6.00;;;7.40;99.90;;;;;;5041847;28;20983;-86
2021/12/19 05:20:32;;;;;;;8.10;5.57;;;7.80;99.90;;;;;;5055694;28;20435;-85
2021/12/19 05:23:12;;;;;;;8.80;5.47;;;7.50;99.90;;;;;;5056688;28;20431;-84
2021/12/19 05:25:38;;;;;;;6.60;4.80;;;7.50;99.90;;;;;;5053657;28;20446;-83
2021/12/19 05:28:03;;;;;;;7.43;5.00;;;7.50;99.90;;;;;;5056621;28;21109;-84
2021/12/19 05:30:29;;;;;;;8.57;5.30;;;7.50;99.90;;;;;;5059698;28;20201;-84
2021/12/19 05:32:55;;;;;;;6.90;5.57;;;7.70;99.90;;;;;;5022325;28;20182;-84
2021/12/19 05:35:57;;;;;;;8.37;5.77;;;7.50;99.90;;;;;;5039826;28;20208;-85
2021/12/19 05:46:22;;;;;;;10.93;5.77;;;7.70;99.90;;;;;;5074854;28;20943;-83
2021/12/19 05:48:49;;;;;;;12.47;8.53;;;7.50;99.90;;;;;;5024909;28;20452;-83
2021/12/19 05:51:14;;;;;;;14.00;8.60;;;7.60;99.90;;;;;;5052317;28;20244;-85
2021/12/19 05:53:40;;;;;;;14.03;9.17;;;7.50;99.90;;;;;;5035623;28;20471;-83
2021/12/19 05:56:06;;;;;;;11.90;7.90;;;7.60;99.90;;;;;;5037859;28;20201;-86
2021/12/19 05:58:31;;;;;;;9.80;7.03;;;7.50;99.90;;;;;;5039168;28;20208;-84
2021/12/19 06:00:57;;;;;;;15.13;8.53;;;7.50;99.90;;;;;;5045907;28;20185;-85
2021/12/19 06:03:23;;;;;;;12.20;7.97;;;7.40;99.90;;;;;;5038286;28;20459;-85
2021/12/19 06:05:49;;;;;;;9.97;6.70;;;7.40;99.90;;;;;;5049242;28;20518;-85
2021/12/19 06:08:15;;;;;;;10.13;6.80;;;7.50;99.90;;;;;;5073081;28;20678;-84
2021/12/19 06:10:40;;;;;;;10.17;5.50;;;7.40;99.90;;;;;;5020378;28;20186;-85
2021/12/19 06:13:06;;;;;;;8.57;5.33;;;7.50;99.90;;;;;;5056087;28;20598;-87
2021/12/19 06:15:32;;;;;;;8.83;5.63;;;7.30;99.90;;;;;;5045986;28;20204;-87
2021/12/19 06:17:57;;;;;;;9.70;4.90;;;7.40;99.90;;;;;;5032291;28;20200;-84
2021/12/19 06:20:25;;;;;;;6.40;4.60;;;7.30;99.90;;;;;;5031970;28;20269;-86
2021/12/19 06:22:51;;;;;;;7.40;5.13;;;7.40;99.90;;;;;;5036014;28;20178;-86
2021/12/19 06:25:16;;;;;;;7.87;4.37;;;7.30;99.90;;;;;;5032028;28;20796;-87
2021/12/19 06:27:42;;;;;;;5.20;4.13;;;7.30;99.90;;;;;;5026770;28;21203;-85
2021/12/19 06:30:10;;;;;;;5.10;4.03;;;7.30;99.90;;;;;;5028556;28;20185;-87
2021/12/19 06:32:35;;;;;;;5.20;3.90;;;7.30;99.90;;;;;;5034586;28;20428;-85
2021/12/19 06:35:07;;;;;;;6.73;4.07;;;7.20;99.90;;;;;;5039134;28;21075;-86
2021/12/19 06:37:37;;;;;;;5.70;4.40;;;7.30;99.90;;;;;;5042884;28;21015;-87
2021/12/19 06:40:05;;;;;;;5.80;4.63;;;7.30;99.90;;;;;;5066272;28;20430;-85
2021/12/19 06:42:31;;;;;;;6.03;4.37;;;7.20;99.90;;;;;;5034787;28;20961;-83
2021/12/19 06:44:57;;;;;;;5.90;4.47;;;7.40;99.90;;;;;;5020660;28;20510;-87
2021/12/19 06:47:23;;;;;;;7.30;5.47;;;7.40;99.90;;;;;;5040052;28;20264;-85
2021/12/19 06:49:48;;;;;;;8.43;6.20;;;7.20;99.90;;;;;;5040890;28;20193;-86
2021/12/19 06:52:14;;;;;;;7.83;5.50;;;7.40;99.90;;;;;;5057211;28;20480;-86
2021/12/19 06:54:40;;;;;;;7.53;5.40;;;7.30;99.90;;;;;;5045709;28;20186;-86
2021/12/19 06:57:06;;;;;;;10.17;5.30;;;7.40;99.90;;;;;;5073388;28;20205;-87
2021/12/19 06:59:31;;;;;;;6.27;4.47;;;7.20;99.90;;;;;;5043757;28;20186;-83
2021/12/19 07:01:57;;;;;;;6.67;4.60;;;7.20;99.90;;;;;;5039129;28;20784;-85
2021/12/19 07:04:23;;;;;;;6.77;4.73;;;7.10;99.90;;;;;;5039271;28;20192;-86
2021/12/19 07:06:48;;;;;;;8.50;6.07;;;7.40;99.90;;;;;;5053160;28;20189;-87
2021/12/19 07:09:14;;;;;;;7.67;5.60;;;7.30;99.90;;;;;;5012095;28;20185;-84
2021/12/19 07:11:40;;;;;;;6.27;4.73;;;7.20;99.90;;;;;;5042172;28;20578;-85
2021/12/19 07:14:05;;;;;;;8.47;5.70;;;7.30;99.90;;;;;;5040523;28;20200;-86
2021/12/19 07:16:31;;;;;;;8.03;5.83;;;7.30;99.90;;;;;;5059869;28;20798;-85
2021/12/19 07:18:57;;;;;;;7.33;5.50;;;7.20;99.90;;;;;;5034037;28;20716;-85
2021/12/19 07:21:24;;;;;;;8.87;6.03;;;7.20;99.90;;;;;;5058582;28;20185;-86
2021/12/19 07:23:49;;;;;;;10.40;7.50;;;7.20;99.90;;;;;;5076869;28;20181;-83
2021/12/19 07:26:15;;;;;;;9.13;6.53;;;7.50;99.90;;;;;;5070766;28;20934;-86
2021/12/19 07:28:44;;;;;;;8.40;5.77;;;7.30;99.90;;;;;;5025992;28;20493;-87
2021/12/19 07:31:09;;;;;;;8.33;6.53;;;7.40;99.90;;;;;;5037297;28;20292;-87
2021/12/19 07:33:35;;;;;;;9.10;6.10;;;7.50;99.90;;;;;;5059369;28;20439;-87
2021/12/19 07:36:01;;;;;;;10.33;6.20;;;7.50;99.90;;;;;;5043231;28;20258;-86
2021/12/19 07:38:36;;;;;;;8.20;5.97;;;7.20;99.90;;;;;;5047825;28;20209;-88
2021/12/19 07:41:02;;;;;;;9.90;7.50;;;7.20;99.90;;;;;;5039926;28;20416;-85
2021/12/19 07:43:28;;;;;;;8.83;6.30;;;7.40;99.90;;;;;;5056511;28;20495;-83
2021/12/19 07:45:55;;;;;;;10.43;6.23;;;7.20;99.90;;;;;;5060738;28;20753;-86
2021/12/19 07:48:21;;;;;;;8.83;6.43;;;7.30;99.90;;;;;;5067109;28;20440;-87
2021/12/19 07:50:46;;;;;;;9.63;6.27;;;7.20;99.90;;;;;;5043771;28;20967;-85
2021/12/19 07:53:13;;;;;;;10.60;6.97;;;7.20;99.90;;;;;;5043077;28;20203;-87
2021/12/19 07:55:39;;;;;;;8.63;6.33;;;7.30;99.90;;;;;;5039964;28;20190;-86
2021/12/19 07:58:04;;;;;;;8.70;6.70;;;7.30;99.90;;;;;;5053154;28;20510;-87
2021/12/19 08:00:30;;;;;;;8.43;6.60;;;7.40;99.90;;;;;;5060544;28;20412;-87
2021/12/19 08:02:56;;;;;;;13.20;7.23;;;7.30;99.90;;;;;;5061374;28;20230;-85
2021/12/19 08:05:22;;;;;;;10.13;6.83;;;7.40;99.90;;;;;;5062541;28;20651;-84
2021/12/19 08:07:55;;;;;;;9.00;5.90;;;7.40;99.90;;;;;;5047912;28;20216;-84
2021/12/19 08:13:04;;;;;;;9.87;7.03;;;7.30;99.90;;;;;;5058766;28;20424;-84
2021/12/19 08:15:30;;;;;;;8.50;5.93;;;7.30;99.90;;;;;;5053751;28;21059;-86
2021/12/19 08:17:56;;;;;;;11.70;6.80;;;7.30;99.90;;;;;;5079526;28;20811;-86
2021/12/19 08:20:21;;;;;;;8.50;6.03;;;7.40;99.90;;;;;;5079299;28;20431;-83
2021/12/19 08:22:49;;;;;;;10.10;6.57;;;7.40;99.90;;;;;;5043475;28;20194;-85
2021/12/19 08:25:15;;;;;;;10.77;7.67;;;7.20;99.90;;;;;;5031733;28;20188;-86
2021/12/19 08:27:41;;;;;;;11.33;7.70;;;7.30;99.90;;;;;;5044808;28;20502;-84
2021/12/19 08:30:10;;;;;;;11.17;7.00;;;7.30;99.90;;;;;;5036126;28;20428;-85
2021/12/19 08:32:36;;;;;;;12.80;7.70;;;7.30;99.90;;;;;;5037659;28;20193;-86
2021/12/19 08:35:03;;;;;;;14.80;8.63;;;7.30;99.90;;;;;;5073842;28;20441;-85
2021/12/19 08:37:29;;;;;;;15.30;8.33;;;7.40;99.90;;;;;;5036366;28;20476;-85
2021/12/19 08:39:55;;;;;;;12.70;8.43;;;7.40;99.90;;;;;;5055506;28;20785;-85
2021/12/19 08:42:21;;;;;;;15.10;10.23;;;7.60;99.90;;;;;;5073774;28;20664;-83
2021/12/19 08:44:47;;;;;;;17.00;9.30;;;7.60;99.90;;;;;;5036063;28;20484;-85
2021/12/19 08:47:13;;;;;;;14.73;9.60;;;7.40;99.90;;;;;;5071112;28;20439;-84
2021/12/19 08:49:40;;;;;;;13.80;9.00;;;7.40;99.90;;;;;;5033868;28;20213;-84
2021/12/19 08:52:07;;;;;;;17.53;9.57;;;7.40;99.90;;;;;;5057626;28;20188;-83
2021/12/19 08:54:33;;;;;;;15.97;8.93;;;7.50;99.90;;;;;;5073833;28;20744;-83
2021/12/19 08:56:59;;;;;;;13.03;9.13;;;7.40;99.90;;;;;;5042996;28;20777;-83
2021/12/19 08:59:26;;;;;;;14.90;9.60;;;7.40;99.90;;;;;;5049284;28;20188;-84
2021/12/19 09:01:53;;;;;;;16.17;9.17;;;7.40;99.90;;;;;;5022140;28;20427;-83
2021/12/19 09:04:20;;;;;;;16.20;10.77;;;7.40;99.90;;;;;;5047799;28;20431;-85
2021/12/19 09:06:45;;;;;;;15.37;9.93;;;7.40;99.90;;;;;;5055456;28;20432;-84
2021/12/19 09:09:11;;;;;;;15.53;9.10;;;7.50;99.90;;;;;;5039092;28;20601;-85
2021/12/19 09:11:37;;;;;;;17.17;9.67;;;7.40;99.90;;;;;;5072434;28;20268;-84
2021/12/19 09:14:03;;;;;;;16.43;10.27;;;7.50;99.90;;;;;;5054584;28;20262;-83
2021/12/19 09:16:30;;;;;;;14.87;10.00;;;7.70;99.90;;;;;;5039169;28;20466;-84
2021/12/19 09:18:55;;;;;;;14.27;9.20;;;7.60;99.90;;;;;;5071508;28;20854;-85
2021/12/19 09:21:21;;;;;;;13.47;8.17;;;7.70;99.90;;;;;;5061976;28;20423;-84
2021/12/19 09:23:47;;;;;;;15.87;10.13;;;7.70;99.90;;;;;;5055074;28;20173;-85
2021/12/19 09:26:13;;;;;;;13.10;9.27;;;7.80;99.90;;;;;;5071927;28;20184;-84
2021/12/19 09:28:39;;;;;;;14.73;9.00;;;7.60;99.90;;;;;;5054530;28;20209;-85
2021/12/19 09:31:05;;;;;;;13.13;9.63;;;7.60;99.90;;;;;;5042535;28;20458;-83
2021/12/19 09:33:31;;;;;;;13.40;8.87;;;7.50;99.90;;;;;;5039217;28;20427;-83
2021/12/19 09:35:57;;;;;;;12.77;8.10;;;7.70;99.90;;;;;;5039064;28;20873;-83
2021/12/19 09:38:23;;;;;;;11.70;7.10;;;7.80;99.90;;;;;;5020455;28;20209;-85
2021/12/19 09:40:50;;;;;;;11.57;7.50;;;7.70;99.90;;;;;;5041274;28;20182;-84
2021/12/19 09:43:41;;;;;;;10.13;7.10;;;7.80;99.90;;;;;;5056557;28;20422;-86
2021/12/19 09:46:11;;;;;;;12.37;7.90;;;7.60;99.90;;;;;;5025208;28;20432;-86
2021/12/19 09:48:39;;;;;;;10.97;7.93;;;7.60;99.90;;;;;;5058813;28;20438;-87
2021/12/19 09:51:05;;;;;;;14.97;10.00;;;7.60;99.90;;;;;;5064020;28;20498;-86
2021/12/19 09:53:31;;;;;;;12.30;9.17;;;7.80;99.90;;;;;;5038577;28;20431;-84
2021/12/19 09:55:57;;;;;;;13.23;9.30;;;7.60;99.90;;;;;;5037494;28;20459;-86
2021/12/19 09:58:23;;;;;;;10.47;7.20;;;7.60;99.90;;;;;;5054043;28;20292;-86
2021/12/19 10:00:53;;;;;;;10.60;7.93;;;7.50;99.90;;;;;;5044243;28;20192;-84
2021/12/19 10:03:22;;;;;;;11.23;8.13;;;7.60;99.90;;;;;;5051903;28;20936;-83
2021/12/19 10:05:48;;;;;;;10.37;6.90;;;7.80;99.90;;;;;;5039293;28;20439;-86
2021/12/19 10:08:23;;;;;;;7.83;6.20;;;7.60;99.90;;;;;;5040354;28;20482;-86
2021/12/19 10:10:58;;;;;;;8.20;5.67;;;7.70;99.90;;;;;;5036132;28;20208;-85
2021/12/19 10:13:35;;;;;;;4.83;3.63;;;7.70;99.90;;;;;;5033439;28;20454;-84
2021/12/19 10:16:21;;;;;;;2.20;1.90;;;7.80;99.90;;;;;;5036280;28;20488;-85
2021/12/19 10:18:55;;;;;;;3.37;2.37;;;7.80;99.90;;;;;;5047145;28;20439;-84
2021/12/19 10:21:22;;;;;;;2.80;2.03;;;7.60;99.90;;;;;;5043510;28;20779;-82
2021/12/19 10:23:48;;;;;;;2.07;1.63;;;7.60;99.90;;;;;;5054912;28;20434;-84
2021/12/19 10:26:14;;;;;;;2.07;1.53;;;7.70;99.90;;;;;;5047404;28;20428;-84
2021/12/19 10:28:57;;;;;;;2.00;1.47;;;7.70;99.90;;;;;;5047100;28;20435;-81
2021/12/19 10:31:28;;;;;;;3.43;2.60;;;7.80;99.90;;;;;;5050159;28;20481;-86
2021/12/19 10:33:54;;;;;;;5.00;3.37;;;7.60;99.90;;;;;;5063295;28;20443;-81
2021/12/19 10:36:20;;;;;;;5.70;4.47;;;7.70;99.90;;;;;;5053720;28;20493;-84
2021/12/19 10:38:47;;;;;;;4.47;3.93;;;7.70;99.90;;;;;;5033137;28;20194;-85
2021/12/19 10:41:32;;;;;;;7.50;5.10;;;7.70;99.90;;;;;;5033798;28;20638;-84
2021/12/19 10:44:07;;;;;;;9.00;6.60;;;7.80;99.90;;;;;;5052589;28;20932;-85
2021/12/19 10:46:37;;;;;;;5.60;5.00;;;7.90;99.90;;;;;;5054876;28;20454;-84
2021/12/19 10:49:04;;;;;;;4.97;4.47;;;7.80;99.90;;;;;;5044391;28;20432;-85
2021/12/19 10:51:37;;;;;;;6.13;5.53;;;7.70;99.90;;;;;;5046559;28;20439;-85
2021/12/19 10:54:04;;;;;;;6.73;5.90;;;7.70;99.90;;;;;;5053732;28;20902;-85
2021/12/19 10:56:36;;;;;;;6.23;5.57;;;8.00;99.90;;;;;;5062906;28;20459;-84
2021/12/19 10:59:04;;;;;;;6.67;6.07;;;7.70;99.90;;;;;;5038479;28;20436;-84
2021/12/19 11:01:35;;;;;;;7.23;6.27;;;7.80;99.90;;;;;;5076292;28;20451;-83
2021/12/19 11:04:04;;;;;;;6.67;6.00;;;7.80;99.90;;;;;;5048370;28;20957;-84
2021/12/19 11:06:38;;;;;;;6.97;6.37;;;7.80;99.90;;;;;;5038545;28;20431;-86
2021/12/19 11:09:11;;;;;;;7.10;6.40;;;7.70;99.90;;;;;;5057025;28;20440;-86
2021/12/19 11:11:56;;;;;;;8.43;6.90;;;7.80;99.90;;;;;;5058947;28;20435;-87
2021/12/19 11:14:31;;;;;;;7.40;6.70;;;7.70;99.90;;;;;;5055783;28;20423;-83
2021/12/19 11:17:06;;;;;;;7.33;6.50;;;8.00;99.90;;;;;;5062069;28;21010;-84
2021/12/19 11:19:33;;;;;;;6.77;5.13;;;7.90;99.90;;;;;;5076036;28;20416;-83
2021/12/19 11:22:00;;;;;;;5.17;4.67;;;7.90;99.90;;;;;;5040737;28;20428;-86
2021/12/19 11:24:26;;;;;;;7.33;4.30;;;8.00;99.90;;;;;;5063668;28;20420;-84
2021/12/19 11:26:55;;;;;;;4.40;4.00;;;8.10;99.90;;;;;;5079637;28;20419;-85
2021/12/19 11:29:22;;;;;;;3.33;3.00;;;8.10;99.90;;;;;;5042723;28;20435;-84
2021/12/19 11:31:52;;;;;;;5.63;3.00;;;7.90;99.90;;;;;;5062731;28;20439;-84
2021/12/19 11:34:30;;;;;;;3.67;3.20;;;7.90;99.90;;;;;;5046484;28;20500;-86
2021/12/19 11:37:01;;;;;;;2.97;2.67;;;8.00;99.90;;;;;;5062297;28;20470;-84
2021/12/19 11:39:31;;;;;;;3.50;3.10;;;7.80;99.90;;;;;;5079618;28;20933;-86
2021/12/19 11:42:02;;;;;;;3.37;3.07;;;7.80;99.90;;;;;;5049526;28;20417;-84
2021/12/19 11:44:36;;;;;;;3.80;3.23;;;7.90;99.90;;;;;;5061735;28;20522;-84
2021/12/19 11:47:08;;;;;;;2.63;2.43;;;7.90;99.90;;;;;;5043647;28;20473;-85
2021/12/19 11:49:34;;;;;;;3.50;3.20;;;7.90;99.90;;;;;;5053562;28;20423;-85
2021/12/19 11:52:25;;;;;;;3.27;2.63;;;7.70;99.90;;;;;;5038184;28;20471;-85
2021/12/19 11:55:13;;;;;;;4.60;2.33;;;8.20;99.90;;;;;;5040836;28;20427;-85
2021/12/19 11:57:39;;;;;;;2.90;2.70;;;7.80;99.90;;;;;;5062907;28;20463;-86
2021/12/19 12:00:28;;;;;;;3.50;3.10;;;8.20;99.90;;;;;;5030718;28;20447;-84
2021/12/19 12:03:12;;;;;;;3.57;3.27;;;7.80;99.90;;;;;;5029276;28;20505;-85
2021/12/19 12:05:47;;;;;;;2.93;2.63;;;7.80;99.90;;;;;;5061413;28;20955;-85
2021/12/19 12:08:17;;;;;;;5.70;3.13;;;7.60;99.90;;;;;;5032189;28;20529;-85
2021/12/19 12:10:54;;;;;;;2.87;2.63;;;7.70;99.90;;;;;;5041091;28;20491;-84
2021/12/19 12:13:27;;;;;;;3.30;3.00;;;7.70;99.90;;;;;;5051434;28;20480;-82
2021/12/19 12:16:09;;;;;;;4.97;2.57;;;7.70;99.90;;;;;;5058949;28;20538;-85
2021/12/19 12:18:44;;;;;;;2.77;2.57;;;7.70;99.90;;;;;;5057294;28;20953;-84
2021/12/19 12:21:41;;;;;;;2.60;2.40;;;7.70;99.90;;;;;;5039175;28;20466;-83
2021/12/19 12:24:13;;;;;;;2.33;2.13;;;7.70;99.90;;;;;;5060029;28;20423;-84
2021/12/19 12:27:05;;;;;;;2.47;2.20;;;7.70;99.90;;;;;;5060560;28;20526;-84
2021/12/19 12:29:32;;;;;;;2.40;2.20;;;7.70;99.90;;;;;;5079105;28;20423;-85
2021/12/19 12:31:58;;;;;;;2.60;2.40;;;7.80;99.90;;;;;;5030616;28;20474;-84
2021/12/19 12:34:24;;;;;;;3.20;2.90;;;7.80;99.90;;;;;;5060255;28;20427;-86
2021/12/19 12:36:51;;;;;;;3.83;3.53;;;7.80;99.90;;;;;;5059070;28;20836;-83
2021/12/19 12:39:24;;;;;;;3.83;3.30;;;7.80;99.90;;;;;;5031699;28;20296;-85
2021/12/19 12:41:58;;;;;;;3.10;2.80;;;7.80;99.90;;;;;;5058278;28;20420;-84
2021/12/19 12:44:25;;;;;;;5.73;5.23;;;8.10;99.90;;;;;;5075483;28;20423;-84
2021/12/19 12:46:56;;;;;;;4.40;4.00;;;8.00;99.90;;;;;;5043068;28;20423;-86
2021/12/19 12:49:24;;;;;;;9.57;8.80;;;7.80;99.90;;;;;;5039405;28;20459;-85
2021/12/19 12:52:02;;;;;;;3.77;3.47;;;7.80;99.90;;;;;;5052038;28;20605;-83
2021/12/19 12:54:37;;;;;;;3.87;3.23;;;8.00;99.90;;;;;;5032841;28;20432;-85
2021/12/19 12:57:09;;;;;;;5.40;4.90;;;7.70;99.90;;;;;;5057102;28;21063;-84
2021/12/19 12:59:40;;;;;;;5.67;5.17;;;7.80;99.90;;;;;;5052771;28;20421;-84
2021/12/19 13:02:17;;;;;;;6.23;5.63;;;8.10;99.90;;;;;;5027944;28;20427;-84
2021/12/19 13:04:51;;;;;;;5.20;4.37;;;8.10;99.90;;;;;;5056584;28;20419;-85
2021/12/19 13:07:22;;;;;;;4.90;4.47;;;8.60;99.90;;;;;;5053476;28;21199;-85
2021/12/19 13:09:51;;;;;;;5.97;5.37;;;8.70;99.90;;;;;;5037477;28;20444;-85
2021/12/19 13:12:28;;;;;;;6.17;5.67;;;9.00;99.90;;;;;;5058157;28;20527;-83
2021/12/19 13:15:07;;;;;;;5.83;5.27;;;9.30;99.90;;;;;;5081130;28;20980;-83
2021/12/19 13:17:40;;;;;;;4.23;3.83;;;9.70;99.90;;;;;;5069205;28;20511;-81
2021/12/19 13:20:16;;;;;;;5.23;4.27;;;9.80;99.90;;;;;;5049646;28;20851;-84
2021/12/19 13:22:54;;;;;;;4.80;4.30;;;10.20;99.90;;;;;;5055059;28;20511;-85
2021/12/19 13:25:29;;;;;;;5.63;5.13;;;10.50;99.90;;;;;;5031803;28;20987;-84
2021/12/19 13:28:00;;;;;;;3.23;2.93;;;10.90;99.90;;;;;;5049173;28;20447;-86
2021/12/19 13:30:29;;;;;;;3.40;2.80;;;11.10;99.90;;;;;;5027907;28;20452;-82
2021/12/19 13:33:01;;;;;;;3.30;3.00;;;11.60;99.90;;;;;;5069758;28;20940;-85
2021/12/19 13:35:42;;;;;;;3.70;3.30;;;11.70;99.90;;;;;;5070222;28;20426;-86
2021/12/19 13:38:15;;;;;;;3.90;3.47;;;11.90;99.90;;;;;;5054405;28;20631;-83
2021/12/19 13:40:56;;;;;;;3.00;2.67;;;12.10;99.90;;;;;;5055083;28;20426;-85
2021/12/19 13:43:27;;;;;;;10.43;3.80;;;12.10;99.90;;;;;;5042055;28;20416;-85
2021/12/19 13:45:58;;;;;;;4.33;3.93;;;12.00;99.90;;;;;;5054098;28;20416;-85
2021/12/19 13:48:38;;;;;;;4.27;3.30;;;12.10;99.90;;;;;;5055144;28;20455;-86
2021/12/19 13:51:07;;;;;;;4.80;3.70;;;12.30;99.90;;;;;;5037924;28;20423;-85
2021/12/19 13:53:39;;;;;;;3.90;3.50;;;12.50;99.90;;;;;;5070726;28;20430;-86
2021/12/19 13:56:16;;;;;;;5.00;3.67;;;12.60;99.90;;;;;;5061625;28;21055;-85
2021/12/19 13:58:45;;;;;;;5.73;4.00;;;12.70;99.90;;;;;;5053650;28;20439;-86
2021/12/19 14:01:18;;;;;;;4.10;3.70;;;12.90;99.90;;;;;;5057829;28;20424;-87
2021/12/19 14:04:00;;;;;;;4.10;3.70;;;13.00;99.90;;;;;;5006783;28;20413;-84